Terminal Aerodrome Forecast
Issued by NWS

Home | Current Version | Previous Version | Graphics & Text | Print | Product List | Glossary On
Versions: 1 2 3 4 5 6 7 8 9 10 11 12 13 14 15 16 17 18 19 20 21 22
000
FTUS43 KGRB 260051 AAA
TAFAUW
TAF AMD
KAUW 260051Z 2601/2624 24009KT P6SM VCSH SCT035 BKN060
     FM260500 21007KT P6SM SCT030
     FM260800 21005KT 5SM BR SCT009 BKN200
      TEMPO 2609/2613 1 1/2SM BR BKN009
     FM261400 21009KT P6SM BKN020 BKN100
     FM261700 22008KT P6SM -SHRA BKN035 OVC070
     FM262100 24008KT 5SM SHRA BKN020=

USA.gov is the U.S. government's official web portal to all federal, state and local government web resources and services.